createdAt,value
2019-03-16T00:03:21.702Z,100474.44
2019-03-16T00:08:14.824Z,100473.03
2019-03-16T00:13:08.033Z,100474.14
2019-03-16T00:18:01.218Z,100475.41
2019-03-16T00:22:57.539Z,100485.19
2019-03-16T00:27:50.718Z,100510.75
2019-03-16T00:32:43.839Z,100508.27
2019-03-16T00:37:37.301Z,100525.89
2019-03-16T00:42:30.393Z,100526.05
2019-03-16T00:47:23.486Z,100518.13
2019-03-16T00:52:16.590Z,100533.44
2019-03-16T00:57:09.786Z,100525.34
2019-03-16T01:02:02.997Z,100530.00
2019-03-16T01:06:56.209Z,100532.20
2019-03-16T01:11:50.374Z,100543.87
2019-03-16T01:16:43.459Z,100541.89
2019-03-16T01:21:36.582Z,100542.14
2019-03-16T01:26:29.776Z,100542.52
2019-03-16T01:31:23.411Z,100547.47
2019-03-16T01:36:16.601Z,100544.48
2019-03-16T01:41:09.896Z,100555.98
2019-03-16T01:46:10.070Z,100552.92
2019-03-16T01:51:03.412Z,100553.70
2019-03-16T01:55:57.316Z,100551.30
2019-03-16T02:00:50.507Z,100563.70
2019-03-16T02:05:43.704Z,100566.97
2019-03-16T02:10:37.015Z,100559.61
2019-03-16T02:15:30.217Z,100561.10
2019-03-16T02:20:26.303Z,100556.64
2019-03-16T02:25:19.380Z,100554.98
2019-03-16T02:30:12.982Z,100550.72
2019-03-16T02:35:06.477Z,100536.88
2019-03-16T02:39:59.627Z,100541.58
2019-03-16T02:44:52.737Z,100528.69
2019-03-16T02:49:45.894Z,100529.88
2019-03-16T02:54:39.038Z,100526.35
2019-03-16T02:59:32.131Z,100526.44
2019-03-16T03:04:25.462Z,100533.05
2019-03-16T03:09:18.682Z,100517.69
2019-03-16T03:14:11.891Z,100508.86
2019-03-16T03:19:05.091Z,100510.79
2019-03-16T03:23:58.390Z,100512.73
2019-03-16T03:28:52.035Z,100518.20
2019-03-16T03:34:00.320Z,100517.93
2019-03-16T03:38:40.220Z,100511.80
2019-03-16T03:43:33.397Z,100512.61
2019-03-16T03:48:26.591Z,100516.22
2019-03-16T03:53:19.824Z,100498.22
2019-03-16T03:58:13.032Z,100507.78
2019-03-16T04:03:06.152Z,100497.56
2019-03-16T04:07:59.335Z,100500.94
2019-03-16T04:12:54.519Z,100499.05
2019-03-16T04:17:47.606Z,100496.70
2019-03-16T04:22:40.808Z,100506.94
2019-03-16T04:27:35.019Z,100510.47
2019-03-16T04:32:28.080Z,100507.22
2019-03-16T04:37:21.193Z,100513.39
2019-03-16T04:42:14.254Z,100505.39
2019-03-16T04:47:07.347Z,100498.84
2019-03-16T04:52:00.508Z,100488.48
2019-03-16T04:56:53.566Z,100493.07
2019-03-16T05:01:46.747Z,100497.73
2019-03-16T05:06:39.924Z,100499.88
2019-03-16T05:11:32.991Z,100491.28
2019-03-16T05:16:26.119Z,100486.12
2019-03-16T05:21:19.197Z,100493.03
2019-03-16T05:26:12.274Z,100499.31
2019-03-16T05:31:05.391Z,100492.66
2019-03-16T05:35:58.510Z,100491.77
2019-03-16T05:40:51.617Z,100482.21
2019-03-16T05:45:44.651Z,100490.94
2019-03-16T05:50:37.810Z,100488.92
2019-03-16T05:55:31.009Z,100481.95
2019-03-16T06:00:24.107Z,100474.11
2019-03-16T06:05:17.205Z,100477.00
2019-03-16T06:10:10.601Z,100466.88
2019-03-16T06:15:03.855Z,100470.16
2019-03-16T06:19:56.943Z,100466.14
2019-03-16T06:24:50.055Z,100474.05
2019-03-16T06:29:46.191Z,100476.45
2019-03-16T06:34:39.332Z,100481.66
2019-03-16T06:39:32.405Z,100478.83
2019-03-16T06:44:25.514Z,100481.22
2019-03-16T06:49:18.600Z,100487.23
2019-03-16T06:54:11.922Z,100499.80
2019-03-16T06:59:06.076Z,100503.73
2019-03-16T07:03:59.309Z,100495.00
2019-03-16T07:08:52.604Z,100509.71
2019-03-16T07:13:45.832Z,100491.33
2019-03-16T07:18:39.029Z,100486.00
2019-03-16T07:23:32.253Z,100493.22
2019-03-16T07:28:25.860Z,100487.56
2019-03-16T07:33:19.947Z,100485.79
2019-03-16T07:38:13.131Z,100501.14
2019-03-16T07:43:06.333Z,100490.98
2019-03-16T07:47:59.628Z,100484.87
2019-03-16T07:52:53.865Z,100475.38
2019-03-16T07:57:47.186Z,100477.69
2019-03-16T08:02:40.384Z,100472.44
2019-03-16T08:07:33.594Z,100468.34
2019-03-16T08:12:26.701Z,100478.39
2019-03-16T08:17:19.895Z,100494.95
2019-03-16T08:22:12.978Z,100490.98
2019-03-16T08:27:07.498Z,100483.73
2019-03-16T08:32:00.988Z,100492.23
2019-03-16T08:36:54.312Z,100494.81
2019-03-16T08:41:47.626Z,100497.56
2019-03-16T08:46:40.813Z,100488.30
2019-03-16T08:51:34.066Z,100494.14
2019-03-16T08:56:27.344Z,100486.39
2019-03-16T09:01:20.453Z,100490.87
2019-03-16T09:06:13.530Z,100479.64
2019-03-16T09:11:07.465Z,100478.24
2019-03-16T09:16:00.639Z,100464.94
2019-03-16T09:20:53.768Z,100454.91
2019-03-16T09:25:46.955Z,100447.03
2019-03-16T09:30:40.551Z,100442.28
2019-03-16T09:35:33.730Z,100425.72
2019-03-16T09:40:26.885Z,100414.02
2019-03-16T09:45:20.146Z,100402.69
2019-03-16T09:50:13.656Z,100402.97
2019-03-16T09:55:06.998Z,100400.92
2019-03-16T10:00:00.316Z,100401.73
2019-03-16T10:04:53.742Z,100397.10
2019-03-16T10:09:47.051Z,100401.39
2019-03-16T10:14:40.214Z,100396.78
2019-03-16T10:19:33.481Z,100391.61
2019-03-16T10:24:26.640Z,100394.80
2019-03-16T10:29:19.807Z,100394.12
2019-03-16T10:34:13.225Z,100383.29
2019-03-16T10:39:07.767Z,100392.56
2019-03-16T10:44:01.039Z,100381.16
2019-03-16T10:48:54.155Z,100384.17
2019-03-16T10:53:47.645Z,100376.94
2019-03-16T10:58:40.730Z,100368.14
2019-03-16T11:03:33.986Z,100361.53
2019-03-16T11:08:27.293Z,100355.19
2019-03-16T11:13:20.504Z,100348.75
2019-03-16T11:18:13.629Z,100341.45
2019-03-16T11:23:06.919Z,100339.64
2019-03-16T11:28:00.135Z,100324.09
2019-03-16T11:32:53.435Z,100308.10
2019-03-16T11:37:46.610Z,100330.08
2019-03-16T11:42:39.834Z,100313.86
2019-03-16T11:47:33.022Z,100349.01
2019-03-16T11:52:26.164Z,100326.50
2019-03-16T11:57:19.503Z,100344.95
2019-03-16T12:02:12.765Z,100338.41
2019-03-16T12:07:06.058Z,100327.34
2019-03-16T12:11:59.183Z,100337.09
2019-03-16T12:16:52.477Z,100330.32
2019-03-16T12:21:45.769Z,100333.42
2019-03-16T12:26:39.065Z,100341.87
2019-03-16T12:31:32.275Z,100347.52
2019-03-16T12:36:25.452Z,100345.13
2019-03-16T12:41:18.731Z,100323.42
2019-03-16T12:46:11.811Z,100307.50
2019-03-16T12:51:05.552Z,100310.61
2019-03-16T12:55:58.748Z,100320.69
2019-03-16T13:00:52.072Z,100327.73
2019-03-16T13:05:45.388Z,100326.80
2019-03-16T13:10:38.591Z,100320.34
2019-03-16T13:15:31.639Z,100305.93
2019-03-16T13:20:24.833Z,100305.34
2019-03-16T13:25:18.378Z,100305.20
2019-03-16T13:30:13.237Z,100292.20
2019-03-16T13:35:06.820Z,100293.47
2019-03-16T13:40:00.018Z,100284.23
2019-03-16T13:44:53.198Z,100285.86
2019-03-16T13:49:46.490Z,100276.23
2019-03-16T13:54:39.617Z,100272.89
2019-03-16T13:59:32.814Z,100270.73
2019-03-16T14:04:26.282Z,100263.52
2019-03-16T14:09:20.411Z,100254.64
2019-03-16T14:14:13.940Z,100253.34
2019-03-16T14:19:07.423Z,100248.77
2019-03-16T14:24:00.731Z,100250.19
2019-03-16T14:28:53.964Z,100245.47
2019-03-16T14:33:48.156Z,100242.01
2019-03-16T14:38:41.620Z,100248.47
2019-03-16T14:43:34.895Z,100245.05
2019-03-16T14:48:28.190Z,100231.27
2019-03-16T14:53:21.623Z,100226.77
2019-03-16T14:58:15.142Z,100226.30
2019-03-16T15:03:08.388Z,100225.11
2019-03-16T15:08:10.678Z,100214.43
2019-03-16T15:13:04.346Z,100210.33
2019-03-16T15:17:57.700Z,100205.81
2019-03-16T15:22:53.507Z,100200.70
2019-03-16T15:27:46.454Z,100193.63
2019-03-16T15:32:39.661Z,100180.94
2019-03-16T15:37:32.918Z,100175.51
2019-03-16T15:42:26.668Z,100171.88
2019-03-16T15:47:19.942Z,100162.38
2019-03-16T15:52:13.212Z,100157.03
2019-03-16T15:57:06.947Z,100149.28
2019-03-16T16:02:00.443Z,100140.54
2019-03-16T16:06:53.906Z,100132.70
2019-03-16T16:11:47.265Z,100124.46
2019-03-16T16:16:40.389Z,100113.09
2019-03-16T16:21:33.786Z,100116.39
2019-03-16T16:26:27.914Z,100103.52
2019-03-16T16:31:21.528Z,100096.54
2019-03-16T16:36:15.122Z,100109.79
2019-03-16T16:41:08.276Z,100105.03
2019-03-16T16:46:01.958Z,100098.30
2019-03-16T16:50:55.682Z,100091.93
2019-03-16T16:55:49.079Z,100092.05
2019-03-16T17:00:42.298Z,100103.77
2019-03-16T17:05:35.926Z,100095.88
2019-03-16T17:10:29.228Z,100094.63
2019-03-16T17:15:22.416Z,100086.16
2019-03-16T17:20:15.625Z,100088.95
2019-03-16T17:25:09.309Z,100080.84
2019-03-16T17:30:02.738Z,100074.20
2019-03-16T17:34:55.962Z,100072.39
2019-03-16T17:39:49.323Z,100070.06
2019-03-16T17:44:42.592Z,100059.31
2019-03-16T17:49:35.737Z,100053.39
2019-03-16T17:54:28.878Z,100048.05
2019-03-16T17:59:23.865Z,100048.35
2019-03-16T18:04:17.326Z,100045.09
2019-03-16T18:09:10.982Z,100036.55
2019-03-16T18:14:04.516Z,100037.01
2019-03-16T18:18:58.298Z,100037.33
2019-03-16T18:23:52.160Z,100038.44
2019-03-16T18:28:45.531Z,100039.43
2019-03-16T18:33:38.727Z,100036.00
2019-03-16T18:38:32.081Z,100039.96
2019-03-16T18:43:25.304Z,100046.21
2019-03-16T18:48:18.895Z,100043.33
2019-03-16T18:53:12.174Z,100041.34
2019-03-16T18:58:05.691Z,100035.56
2019-03-16T19:03:05.937Z,100025.56
2019-03-16T19:07:59.048Z,100022.88
2019-03-16T19:12:52.566Z,100025.73
2019-03-16T19:17:58.148Z,100022.36
2019-03-16T19:22:41.635Z,100023.30
2019-03-16T19:27:34.886Z,100018.48
2019-03-16T19:32:33.732Z,100005.62
2019-03-16T19:37:23.366Z,100001.41
2019-03-16T19:42:16.791Z,99994.45
2019-03-16T19:47:09.866Z,99985.28
2019-03-16T19:52:03.034Z,99979.61
2019-03-16T19:56:56.136Z,99976.92
2019-03-16T20:01:49.271Z,99970.00
2019-03-16T20:06:42.388Z,99966.83
2019-03-16T20:11:37.393Z,99966.66
2019-03-16T20:16:30.527Z,99955.41
2019-03-16T20:21:23.943Z,99952.44
2019-03-16T20:26:17.069Z,99956.34
2019-03-16T20:31:10.138Z,99951.75
2019-03-16T20:36:03.341Z,99947.01
2019-03-16T20:40:56.460Z,99947.80
2019-03-16T20:45:51.096Z,99939.00
2019-03-16T20:50:44.185Z,99937.73
2019-03-16T20:55:37.247Z,99924.64
2019-03-16T21:00:30.323Z,99917.31
2019-03-16T21:05:23.479Z,99900.88
2019-03-16T21:10:16.605Z,99898.48
2019-03-16T21:15:10.032Z,99895.22
2019-03-16T21:20:04.091Z,99895.68
2019-03-16T21:24:57.226Z,99891.22
2019-03-16T21:29:50.353Z,99888.19
2019-03-16T21:34:44.411Z,99888.39
2019-03-16T21:39:39.443Z,99886.90
2019-03-16T21:44:32.538Z,99884.31
2019-03-16T21:49:25.628Z,99878.30
2019-03-16T21:54:18.763Z,99868.52
2019-03-16T21:59:11.911Z,99869.63
2019-03-16T22:04:04.998Z,99865.72
2019-03-16T22:08:58.143Z,99856.00
2019-03-16T22:13:51.250Z,99845.01
2019-03-16T22:18:44.413Z,99838.70
2019-03-16T22:23:37.516Z,99834.66
2019-03-16T22:28:30.634Z,99826.30
2019-03-16T22:33:23.767Z,99816.48
2019-03-16T22:38:16.879Z,99810.71
2019-03-16T22:43:09.990Z,99801.38
2019-03-16T22:48:03.099Z,99797.32
2019-03-16T22:52:56.174Z,99788.63
2019-03-16T22:57:49.451Z,99773.13
2019-03-16T23:02:42.723Z,99770.88
2019-03-16T23:07:35.964Z,99759.51
2019-03-16T23:12:29.128Z,99756.83
2019-03-16T23:17:22.255Z,99748.44
2019-03-16T23:22:15.354Z,99754.18
2019-03-16T23:27:08.636Z,99739.73
2019-03-16T23:32:01.847Z,99732.72
2019-03-16T23:36:54.923Z,99726.60
2019-03-16T23:41:48.167Z,99719.28
2019-03-16T23:46:41.386Z,99708.22
2019-03-16T23:51:34.750Z,99695.88
2019-03-16T23:56:27.931Z,99696.46
